sensor_id;sensor_type;location;lat;lon;timestamp;temperature;humidity
48454;DHT22;34261;55.678;12.464;2023-06-04T00:00:03;13.80;97.00
48454;DHT22;34261;55.678;12.464;2023-06-04T00:11:38;13.70;97.60
48454;DHT22;34261;55.678;12.464;2023-06-04T00:14:04;13.70;97.80
48454;DHT22;34261;55.678;12.464;2023-06-04T00:16:29;13.70;97.90
48454;DHT22;34261;55.678;12.464;2023-06-04T00:18:55;13.70;98.00
48454;DHT22;34261;55.678;12.464;2023-06-04T00:21:20;13.70;98.20
48454;DHT22;34261;55.678;12.464;2023-06-04T00:23:45;13.70;98.40
48454;DHT22;34261;55.678;12.464;2023-06-04T00:26:11;13.60;98.60
48454;DHT22;34261;55.678;12.464;2023-06-04T00:28:36;13.70;98.80
48454;DHT22;34261;55.678;12.464;2023-06-04T00:31:04;13.60;99.00
48454;DHT22;34261;55.678;12.464;2023-06-04T00:33:30;13.60;99.30
48454;DHT22;34261;55.678;12.464;2023-06-04T00:35:55;13.50;99.70
48454;DHT22;34261;55.678;12.464;2023-06-04T00:38:20;13.50;99.80
48454;DHT22;34261;55.678;12.464;2023-06-04T00:40:46;13.50;99.90
48454;DHT22;34261;55.678;12.464;2023-06-04T00:43:11;13.50;99.90
48454;DHT22;34261;55.678;12.464;2023-06-04T00:45:39;13.50;99.90
48454;DHT22;34261;55.678;12.464;2023-06-04T00:48:04;13.50;99.90
48454;DHT22;34261;55.678;12.464;2023-06-04T00:50:31;13.50;99.90
48454;DHT22;34261;55.678;12.464;2023-06-04T00:52:58;13.50;99.90
48454;DHT22;34261;55.678;12.464;2023-06-04T00:55:24;13.40;99.90
48454;DHT22;34261;55.678;12.464;2023-06-04T00:57:50;13.40;99.90
48454;DHT22;34261;55.678;12.464;2023-06-04T01:00:15;13.40;99.90
48454;DHT22;34261;55.678;12.464;2023-06-04T01:02:41;13.40;99.90
48454;DHT22;34261;55.678;12.464;2023-06-04T01:08:00;13.40;99.90
48454;DHT22;34261;55.678;12.464;2023-06-04T01:10:26;13.40;99.90
48454;DHT22;34261;55.678;12.464;2023-06-04T01:12:51;13.30;99.90
48454;DHT22;34261;55.678;12.464;2023-06-04T01:15:17;13.30;99.90
48454;DHT22;34261;55.678;12.464;2023-06-04T01:17:49;13.30;99.90
48454;DHT22;34261;55.678;12.464;2023-06-04T01:20:24;13.30;99.90
48454;DHT22;34261;55.678;12.464;2023-06-04T01:27:52;13.20;99.90
48454;DHT22;34261;55.678;12.464;2023-06-04T01:30:24;13.10;99.90
48454;DHT22;34261;55.678;12.464;2023-06-04T01:32:50;13.10;99.90
48454;DHT22;34261;55.678;12.464;2023-06-04T01:35:16;13.10;99.90
48454;DHT22;34261;55.678;12.464;2023-06-04T01:37:41;13.10;99.90
48454;DHT22;34261;55.678;12.464;2023-06-04T01:40:07;13.00;99.90
48454;DHT22;34261;55.678;12.464;2023-06-04T01:42:33;13.00;99.90
48454;DHT22;34261;55.678;12.464;2023-06-04T01:44:59;13.00;99.90
48454;DHT22;34261;55.678;12.464;2023-06-04T01:47:26;12.90;99.90
48454;DHT22;34261;55.678;12.464;2023-06-04T01:49:52;12.90;99.90
48454;DHT22;34261;55.678;12.464;2023-06-04T01:52:17;12.90;99.90
48454;DHT22;34261;55.678;12.464;2023-06-04T01:54:43;12.90;99.90
48454;DHT22;34261;55.678;12.464;2023-06-04T01:57:08;12.90;99.90
48454;DHT22;34261;55.678;12.464;2023-06-04T01:59:35;12.80;99.90
48454;DHT22;34261;55.678;12.464;2023-06-04T02:02:01;12.80;99.90
48454;DHT22;34261;55.678;12.464;2023-06-04T02:04:27;12.80;99.90
48454;DHT22;34261;55.678;12.464;2023-06-04T02:06:53;12.80;99.90
48454;DHT22;34261;55.678;12.464;2023-06-04T02:09:18;12.80;99.90
48454;DHT22;34261;55.678;12.464;2023-06-04T02:11:44;12.80;99.90
48454;DHT22;34261;55.678;12.464;2023-06-04T02:14:09;12.80;99.90
48454;DHT22;34261;55.678;12.464;2023-06-04T02:16:35;12.70;99.90
48454;DHT22;34261;55.678;12.464;2023-06-04T02:19:00;12.70;99.90
48454;DHT22;34261;55.678;12.464;2023-06-04T02:21:26;12.70;99.90
48454;DHT22;34261;55.678;12.464;2023-06-04T02:23:51;12.60;99.90
48454;DHT22;34261;55.678;12.464;2023-06-04T02:26:17;12.70;99.90
48454;DHT22;34261;55.678;12.464;2023-06-04T02:28:42;12.70;99.90
48454;DHT22;34261;55.678;12.464;2023-06-04T02:31:08;12.70;99.90
48454;DHT22;34261;55.678;12.464;2023-06-04T02:33:33;12.70;99.90
48454;DHT22;34261;55.678;12.464;2023-06-04T02:35:59;12.60;99.90
48454;DHT22;34261;55.678;12.464;2023-06-04T02:38:25;12.60;99.90
48454;DHT22;34261;55.678;12.464;2023-06-04T02:40:50;12.60;99.90
48454;DHT22;34261;55.678;12.464;2023-06-04T02:43:16;12.60;99.90
48454;DHT22;34261;55.678;12.464;2023-06-04T02:45:41;12.60;99.90
48454;DHT22;34261;55.678;12.464;2023-06-04T02:48:07;12.60;99.90
48454;DHT22;34261;55.678;12.464;2023-06-04T02:50:32;12.50;99.90
48454;DHT22;34261;55.678;12.464;2023-06-04T02:52:58;12.50;99.90
48454;DHT22;34261;55.678;12.464;2023-06-04T02:55:23;12.50;99.90
48454;DHT22;34261;55.678;12.464;2023-06-04T02:57:48;12.50;99.90
48454;DHT22;34261;55.678;12.464;2023-06-04T03:00:14;12.50;99.90
48454;DHT22;34261;55.678;12.464;2023-06-04T03:02:41;12.50;99.90
48454;DHT22;34261;55.678;12.464;2023-06-04T03:05:08;12.40;99.90
48454;DHT22;34261;55.678;12.464;2023-06-04T03:07:34;12.50;99.90
48454;DHT22;34261;55.678;12.464;2023-06-04T03:09:59;12.40;99.90
48454;DHT22;34261;55.678;12.464;2023-06-04T03:12:25;12.40;99.90
48454;DHT22;34261;55.678;12.464;2023-06-04T03:14:50;12.40;99.90
48454;DHT22;34261;55.678;12.464;2023-06-04T03:17:16;12.40;99.90
48454;DHT22;34261;55.678;12.464;2023-06-04T03:19:41;12.40;99.90
48454;DHT22;34261;55.678;12.464;2023-06-04T03:22:07;12.40;99.90
48454;DHT22;34261;55.678;12.464;2023-06-04T03:24:34;12.40;99.90
48454;DHT22;34261;55.678;12.464;2023-06-04T03:27:00;12.40;99.90
48454;DHT22;34261;55.678;12.464;2023-06-04T03:29:26;12.40;99.90
48454;DHT22;34261;55.678;12.464;2023-06-04T03:31:52;12.40;99.90
48454;DHT22;34261;55.678;12.464;2023-06-04T03:34:17;12.40;99.90
48454;DHT22;34261;55.678;12.464;2023-06-04T03:36:43;12.40;99.90
48454;DHT22;34261;55.678;12.464;2023-06-04T03:39:08;12.40;99.90
48454;DHT22;34261;55.678;12.464;2023-06-04T03:41:33;12.40;99.90
48454;DHT22;34261;55.678;12.464;2023-06-04T03:43:59;12.40;99.90
48454;DHT22;34261;55.678;12.464;2023-06-04T03:46:24;12.40;99.90
48454;DHT22;34261;55.678;12.464;2023-06-04T03:48:56;12.40;99.90
48454;DHT22;34261;55.678;12.464;2023-06-04T03:51:22;12.50;99.90
48454;DHT22;34261;55.678;12.464;2023-06-04T03:53:47;12.40;99.90
48454;DHT22;34261;55.678;12.464;2023-06-04T03:56:13;12.50;99.90
48454;DHT22;34261;55.678;12.464;2023-06-04T03:58:39;12.50;99.90
48454;DHT22;34261;55.678;12.464;2023-06-04T04:01:04;12.50;99.90
48454;DHT22;34261;55.678;12.464;2023-06-04T04:03:30;12.50;99.90
48454;DHT22;34261;55.678;12.464;2023-06-04T04:05:56;12.50;99.90
48454;DHT22;34261;55.678;12.464;2023-06-04T04:08:23;12.50;99.90
48454;DHT22;34261;55.678;12.464;2023-06-04T04:10:48;12.50;99.90
48454;DHT22;34261;55.678;12.464;2023-06-04T04:13:14;12.60;99.90
48454;DHT22;34261;55.678;12.464;2023-06-04T04:15:39;12.70;99.90
48454;DHT22;34261;55.678;12.464;2023-06-04T04:18:04;12.70;99.90
48454;DHT22;34261;55.678;12.464;2023-06-04T04:20:33;12.70;99.90
48454;DHT22;34261;55.678;12.464;2023-06-04T04:22:59;12.80;99.90
48454;DHT22;34261;55.678;12.464;2023-06-04T04:25:24;12.90;99.90
48454;DHT22;34261;55.678;12.464;2023-06-04T04:27:50;12.90;99.90
48454;DHT22;34261;55.678;12.464;2023-06-04T04:30:15;12.90;99.90
48454;DHT22;34261;55.678;12.464;2023-06-04T04:32:42;13.00;99.90
48454;DHT22;34261;55.678;12.464;2023-06-04T04:35:14;13.00;99.90
48454;DHT22;34261;55.678;12.464;2023-06-04T04:37:40;12.90;99.90
48454;DHT22;34261;55.678;12.464;2023-06-04T04:40:08;12.90;99.90
48454;DHT22;34261;55.678;12.464;2023-06-04T04:42:35;13.00;99.90
48454;DHT22;34261;55.678;12.464;2023-06-04T04:45:00;13.10;99.90
48454;DHT22;34261;55.678;12.464;2023-06-04T04:47:26;13.10;99.90
48454;DHT22;34261;55.678;12.464;2023-06-04T04:49:51;13.30;99.90
48454;DHT22;34261;55.678;12.464;2023-06-04T04:52:17;13.30;99.90
48454;DHT22;34261;55.678;12.464;2023-06-04T04:54:42;13.40;99.90
48454;DHT22;34261;55.678;12.464;2023-06-04T04:57:07;13.40;99.90
48454;DHT22;34261;55.678;12.464;2023-06-04T04:59:33;13.50;99.90
48454;DHT22;34261;55.678;12.464;2023-06-04T05:01:58;13.60;99.90
48454;DHT22;34261;55.678;12.464;2023-06-04T05:04:24;13.70;99.90
48454;DHT22;34261;55.678;12.464;2023-06-04T05:06:49;13.80;99.90
48454;DHT22;34261;55.678;12.464;2023-06-04T05:09:15;13.90;99.90
48454;DHT22;34261;55.678;12.464;2023-06-04T05:11:41;13.90;99.90
48454;DHT22;34261;55.678;12.464;2023-06-04T05:14:06;13.90;99.90
48454;DHT22;34261;55.678;12.464;2023-06-04T05:16:32;13.90;99.90
48454;DHT22;34261;55.678;12.464;2023-06-04T05:19:00;14.00;99.90
48454;DHT22;34261;55.678;12.464;2023-06-04T05:21:27;14.00;99.90
48454;DHT22;34261;55.678;12.464;2023-06-04T05:23:54;14.10;99.90
48454;DHT22;34261;55.678;12.464;2023-06-04T05:26:19;14.20;99.90
48454;DHT22;34261;55.678;12.464;2023-06-04T05:28:48;14.10;99.90
48454;DHT22;34261;55.678;12.464;2023-06-04T05:31:14;14.10;99.90
48454;DHT22;34261;55.678;12.464;2023-06-04T05:33:41;14.20;99.90
48454;DHT22;34261;55.678;12.464;2023-06-04T05:36:06;14.30;99.90
48454;DHT22;34261;55.678;12.464;2023-06-04T05:38:32;14.30;99.90
48454;DHT22;34261;55.678;12.464;2023-06-04T05:40:57;14.40;99.90
48454;DHT22;34261;55.678;12.464;2023-06-04T05:43:23;14.40;99.90
48454;DHT22;34261;55.678;12.464;2023-06-04T05:45:48;14.50;99.90
48454;DHT22;34261;55.678;12.464;2023-06-04T05:48:14;14.50;99.90
48454;DHT22;34261;55.678;12.464;2023-06-04T05:50:40;14.50;99.90
48454;DHT22;34261;55.678;12.464;2023-06-04T05:53:05;14.50;99.90
48454;DHT22;34261;55.678;12.464;2023-06-04T05:55:31;14.60;99.90
48454;DHT22;34261;55.678;12.464;2023-06-04T05:57:56;14.70;99.90
48454;DHT22;34261;55.678;12.464;2023-06-04T06:00:22;14.80;99.90
48454;DHT22;34261;55.678;12.464;2023-06-04T06:02:49;14.80;99.90
48454;DHT22;34261;55.678;12.464;2023-06-04T06:05:14;14.80;99.90
48454;DHT22;34261;55.678;12.464;2023-06-04T06:07:40;14.70;99.90
48454;DHT22;34261;55.678;12.464;2023-06-04T06:10:06;14.80;99.90
48454;DHT22;34261;55.678;12.464;2023-06-04T06:12:31;14.80;99.90
48454;DHT22;34261;55.678;12.464;2023-06-04T06:14:57;14.90;99.90
48454;DHT22;34261;55.678;12.464;2023-06-04T06:17:22;14.90;99.90
48454;DHT22;34261;55.678;12.464;2023-06-04T06:19:49;15.00;99.90
48454;DHT22;34261;55.678;12.464;2023-06-04T06:22:14;15.10;99.90
48454;DHT22;34261;55.678;12.464;2023-06-04T06:24:40;15.10;99.90
48454;DHT22;34261;55.678;12.464;2023-06-04T06:27:06;15.20;99.90
48454;DHT22;34261;55.678;12.464;2023-06-04T06:29:32;15.30;99.90
48454;DHT22;34261;55.678;12.464;2023-06-04T06:31:58;15.40;99.90
48454;DHT22;34261;55.678;12.464;2023-06-04T06:34:24;15.60;99.90
48454;DHT22;34261;55.678;12.464;2023-06-04T06:36:50;15.70;99.90
48454;DHT22;34261;55.678;12.464;2023-06-04T06:39:15;15.70;99.90
48454;DHT22;34261;55.678;12.464;2023-06-04T06:41:41;15.60;99.90
48454;DHT22;34261;55.678;12.464;2023-06-04T06:44:06;15.60;99.90
48454;DHT22;34261;55.678;12.464;2023-06-04T06:46:32;15.70;99.90
48454;DHT22;34261;55.678;12.464;2023-06-04T06:48:58;15.90;98.60
48454;DHT22;34261;55.678;12.464;2023-06-04T06:51:23;16.10;98.60
48454;DHT22;34261;55.678;12.464;2023-06-04T06:53:49;16.10;97.70
48454;DHT22;34261;55.678;12.464;2023-06-04T06:56:14;16.10;98.00
48454;DHT22;34261;55.678;12.464;2023-06-04T06:58:40;16.10;98.40
48454;DHT22;34261;55.678;12.464;2023-06-04T07:01:06;16.20;98.80
48454;DHT22;34261;55.678;12.464;2023-06-04T07:03:31;16.30;99.00
48454;DHT22;34261;55.678;12.464;2023-06-04T07:05:57;16.50;98.20
48454;DHT22;34261;55.678;12.464;2023-06-04T07:08:22;16.70;97.60
48454;DHT22;34261;55.678;12.464;2023-06-04T07:10:48;16.70;97.30
48454;DHT22;34261;55.678;12.464;2023-06-04T07:13:13;16.60;97.70
48454;DHT22;34261;55.678;12.464;2023-06-04T07:15:39;16.60;97.20
48454;DHT22;34261;55.678;12.464;2023-06-04T07:18:04;16.80;97.00
48454;DHT22;34261;55.678;12.464;2023-06-04T07:20:30;16.90;97.40
48454;DHT22;34261;55.678;12.464;2023-06-04T07:22:56;17.00;97.20
48454;DHT22;34261;55.678;12.464;2023-06-04T07:25:21;17.10;95.70
48454;DHT22;34261;55.678;12.464;2023-06-04T07:27:49;17.10;95.90
48454;DHT22;34261;55.678;12.464;2023-06-04T07:30:16;17.30;96.60
48454;DHT22;34261;55.678;12.464;2023-06-04T07:32:45;17.40;95.20
48454;DHT22;34261;55.678;12.464;2023-06-04T07:35:11;17.30;94.90
48454;DHT22;34261;55.678;12.464;2023-06-04T07:37:36;17.30;95.30
48454;DHT22;34261;55.678;12.464;2023-06-04T07:40:02;17.40;95.30
48454;DHT22;34261;55.678;12.464;2023-06-04T07:42:27;17.60;95.20
48454;DHT22;34261;55.678;12.464;2023-06-04T07:44:53;17.70;95.00
48454;DHT22;34261;55.678;12.464;2023-06-04T07:47:18;17.80;95.10
48454;DHT22;34261;55.678;12.464;2023-06-04T07:49:44;17.90;95.40
48454;DHT22;34261;55.678;12.464;2023-06-04T07:52:09;18.00;95.30
48454;DHT22;34261;55.678;12.464;2023-06-04T07:54:35;18.10;94.00
48454;DHT22;34261;55.678;12.464;2023-06-04T07:57:00;18.10;94.60
48454;DHT22;34261;55.678;12.464;2023-06-04T07:59:26;18.30;93.70
48454;DHT22;34261;55.678;12.464;2023-06-04T08:01:51;18.40;93.30
48454;DHT22;34261;55.678;12.464;2023-06-04T08:04:17;18.40;92.90
48454;DHT22;34261;55.678;12.464;2023-06-04T08:06:43;18.50;92.90
48454;DHT22;34261;55.678;12.464;2023-06-04T08:09:10;18.60;93.30
48454;DHT22;34261;55.678;12.464;2023-06-04T08:11:36;18.70;92.80
48454;DHT22;34261;55.678;12.464;2023-06-04T08:14:02;18.80;92.60
48454;DHT22;34261;55.678;12.464;2023-06-04T08:16:27;19.00;92.60
48454;DHT22;34261;55.678;12.464;2023-06-04T08:18:53;19.10;92.10
48454;DHT22;34261;55.678;12.464;2023-06-04T08:21:26;19.20;92.70
48454;DHT22;34261;55.678;12.464;2023-06-04T08:23:51;19.20;92.20
48454;DHT22;34261;55.678;12.464;2023-06-04T08:26:17;19.20;91.80
48454;DHT22;34261;55.678;12.464;2023-06-04T08:28:42;19.00;91.20
48454;DHT22;34261;55.678;12.464;2023-06-04T08:31:08;19.10;91.10
48454;DHT22;34261;55.678;12.464;2023-06-04T08:33:33;19.10;90.70
48454;DHT22;34261;55.678;12.464;2023-06-04T08:35:59;19.30;91.10
48454;DHT22;34261;55.678;12.464;2023-06-04T08:38:25;19.20;89.80
48454;DHT22;34261;55.678;12.464;2023-06-04T08:40:52;19.20;90.60
48454;DHT22;34261;55.678;12.464;2023-06-04T08:43:17;19.30;91.10
48454;DHT22;34261;55.678;12.464;2023-06-04T08:45:44;19.50;90.30
48454;DHT22;34261;55.678;12.464;2023-06-04T08:48:14;19.70;85.50
48454;DHT22;34261;55.678;12.464;2023-06-04T08:50:39;19.70;87.90
48454;DHT22;34261;55.678;12.464;2023-06-04T08:53:07;19.80;90.10
48454;DHT22;34261;55.678;12.464;2023-06-04T08:55:33;19.90;88.20
48454;DHT22;34261;55.678;12.464;2023-06-04T08:57:59;20.00;88.10
48454;DHT22;34261;55.678;12.464;2023-06-04T09:00:25;19.90;85.20
48454;DHT22;34261;55.678;12.464;2023-06-04T09:02:51;19.80;88.20
48454;DHT22;34261;55.678;12.464;2023-06-04T09:05:20;20.20;87.20
48454;DHT22;34261;55.678;12.464;2023-06-04T09:07:46;20.20;88.40
48454;DHT22;34261;55.678;12.464;2023-06-04T09:10:13;20.20;88.80
48454;DHT22;34261;55.678;12.464;2023-06-04T09:12:46;20.50;88.90
48454;DHT22;34261;55.678;12.464;2023-06-04T09:15:12;20.60;90.00
48454;DHT22;34261;55.678;12.464;2023-06-04T09:17:37;20.60;86.80
48454;DHT22;34261;55.678;12.464;2023-06-04T09:20:03;20.70;88.70
48454;DHT22;34261;55.678;12.464;2023-06-04T09:22:35;20.80;87.30
48454;DHT22;34261;55.678;12.464;2023-06-04T09:25:03;21.00;88.10
48454;DHT22;34261;55.678;12.464;2023-06-04T09:27:36;21.10;87.40
48454;DHT22;34261;55.678;12.464;2023-06-04T09:30:02;21.30;86.30
48454;DHT22;34261;55.678;12.464;2023-06-04T09:32:28;21.50;87.60
48454;DHT22;34261;55.678;12.464;2023-06-04T09:37:39;21.50;86.20
48454;DHT22;34261;55.678;12.464;2023-06-04T09:40:05;21.40;86.90
48454;DHT22;34261;55.678;12.464;2023-06-04T09:42:44;21.50;86.20
48454;DHT22;34261;55.678;12.464;2023-06-04T09:45:10;21.70;85.60
48454;DHT22;34261;55.678;12.464;2023-06-04T09:47:40;21.90;87.70
48454;DHT22;34261;55.678;12.464;2023-06-04T09:50:06;21.90;83.30
48454;DHT22;34261;55.678;12.464;2023-06-04T09:52:32;21.90;85.00
48454;DHT22;34261;55.678;12.464;2023-06-04T09:54:57;22.10;84.00
48454;DHT22;34261;55.678;12.464;2023-06-04T09:57:23;22.10;83.80
48454;DHT22;34261;55.678;12.464;2023-06-04T09:59:50;22.20;83.50
48454;DHT22;34261;55.678;12.464;2023-06-04T10:02:21;22.30;84.00
48454;DHT22;34261;55.678;12.464;2023-06-04T10:04:48;22.50;85.00
48454;DHT22;34261;55.678;12.464;2023-06-04T10:07:14;22.50;83.00
48454;DHT22;34261;55.678;12.464;2023-06-04T10:09:42;22.50;85.00
48454;DHT22;34261;55.678;12.464;2023-06-04T10:12:13;22.60;84.00
48454;DHT22;34261;55.678;12.464;2023-06-04T10:14:45;22.90;85.90
48454;DHT22;34261;55.678;12.464;2023-06-04T10:17:12;23.00;82.90
48454;DHT22;34261;55.678;12.464;2023-06-04T10:19:38;22.80;81.90
48454;DHT22;34261;55.678;12.464;2023-06-04T10:22:06;23.00;84.10
48454;DHT22;34261;55.678;12.464;2023-06-04T10:24:32;23.30;82.30
48454;DHT22;34261;55.678;12.464;2023-06-04T10:26:58;23.50;82.00
48454;DHT22;34261;55.678;12.464;2023-06-04T10:29:23;23.10;80.20
48454;DHT22;34261;55.678;12.464;2023-06-04T10:31:53;23.30;83.60
48454;DHT22;34261;55.678;12.464;2023-06-04T10:34:18;23.20;81.90
48454;DHT22;34261;55.678;12.464;2023-06-04T10:36:44;23.10;81.40
48454;DHT22;34261;55.678;12.464;2023-06-04T10:39:10;23.20;81.50
48454;DHT22;34261;55.678;12.464;2023-06-04T10:41:36;23.10;82.30
48454;DHT22;34261;55.678;12.464;2023-06-04T10:44:02;23.20;81.60
48454;DHT22;34261;55.678;12.464;2023-06-04T10:46:37;23.20;82.30
48454;DHT22;34261;55.678;12.464;2023-06-04T10:49:02;23.40;82.90
48454;DHT22;34261;55.678;12.464;2023-06-04T10:51:28;23.80;83.00
48454;DHT22;34261;55.678;12.464;2023-06-04T10:53:56;24.20;81.60
48454;DHT22;34261;55.678;12.464;2023-06-04T10:56:28;24.00;80.90
48454;DHT22;34261;55.678;12.464;2023-06-04T10:58:54;24.10;81.10
48454;DHT22;34261;55.678;12.464;2023-06-04T11:01:26;24.20;82.40
48454;DHT22;34261;55.678;12.464;2023-06-04T11:03:53;24.40;81.20
48454;DHT22;34261;55.678;12.464;2023-06-04T11:06:19;24.60;83.00
48454;DHT22;34261;55.678;12.464;2023-06-04T11:08:46;24.60;81.40
48454;DHT22;34261;55.678;12.464;2023-06-04T11:11:14;24.60;80.00
48454;DHT22;34261;55.678;12.464;2023-06-04T11:13:40;24.60;81.30
48454;DHT22;34261;55.678;12.464;2023-06-04T11:18:41;24.80;79.70
48454;DHT22;34261;55.678;12.464;2023-06-04T11:21:06;24.80;78.90
48454;DHT22;34261;55.678;12.464;2023-06-04T11:23:33;24.80;79.50
48454;DHT22;34261;55.678;12.464;2023-06-04T11:25:58;24.90;80.60
48454;DHT22;34261;55.678;12.464;2023-06-04T11:28:24;24.50;77.70
48454;DHT22;34261;55.678;12.464;2023-06-04T11:31:02;24.60;82.30
48454;DHT22;34261;55.678;12.464;2023-06-04T11:33:28;24.90;79.50
48454;DHT22;34261;55.678;12.464;2023-06-04T11:35:54;24.50;79.90
48454;DHT22;34261;55.678;12.464;2023-06-04T11:38:19;24.90;78.90
48454;DHT22;34261;55.678;12.464;2023-06-04T11:40:54;25.30;79.30
48454;DHT22;34261;55.678;12.464;2023-06-04T11:43:19;25.50;79.10
48454;DHT22;34261;55.678;12.464;2023-06-04T11:45:45;25.70;78.40
48454;DHT22;34261;55.678;12.464;2023-06-04T11:48:10;25.30;78.10
48454;DHT22;34261;55.678;12.464;2023-06-04T11:50:36;25.70;79.70
48454;DHT22;34261;55.678;12.464;2023-06-04T11:53:01;25.60;77.70
48454;DHT22;34261;55.678;12.464;2023-06-04T11:55:27;25.40;79.20
48454;DHT22;34261;55.678;12.464;2023-06-04T11:57:53;25.10;78.20
48454;DHT22;34261;55.678;12.464;2023-06-04T12:00:19;25.00;77.90
48454;DHT22;34261;55.678;12.464;2023-06-04T12:02:55;25.00;77.80
48454;DHT22;34261;55.678;12.464;2023-06-04T12:05:21;25.50;78.80
48454;DHT22;34261;55.678;12.464;2023-06-04T12:07:50;25.90;77.00
48454;DHT22;34261;55.678;12.464;2023-06-04T12:10:17;25.60;78.30
48454;DHT22;34261;55.678;12.464;2023-06-04T12:12:42;25.40;77.20
48454;DHT22;34261;55.678;12.464;2023-06-04T12:15:08;25.60;78.20
48454;DHT22;34261;55.678;12.464;2023-06-04T12:17:48;26.00;78.00
48454;DHT22;34261;55.678;12.464;2023-06-04T12:20:14;26.60;76.20
48454;DHT22;34261;55.678;12.464;2023-06-04T12:22:46;26.80;78.10
48454;DHT22;34261;55.678;12.464;2023-06-04T12:25:12;27.00;77.30
48454;DHT22;34261;55.678;12.464;2023-06-04T12:27:46;27.00;75.60
48454;DHT22;34261;55.678;12.464;2023-06-04T12:30:12;26.90;74.10
48454;DHT22;34261;55.678;12.464;2023-06-04T12:32:37;26.80;75.30
48454;DHT22;34261;55.678;12.464;2023-06-04T12:35:04;26.70;73.60
48454;DHT22;34261;55.678;12.464;2023-06-04T12:37:30;27.00;75.50
48454;DHT22;34261;55.678;12.464;2023-06-04T12:39:55;27.30;74.50
48454;DHT22;34261;55.678;12.464;2023-06-04T12:42:21;27.10;74.10
48454;DHT22;34261;55.678;12.464;2023-06-04T12:44:46;26.80;74.20
48454;DHT22;34261;55.678;12.464;2023-06-04T12:47:12;27.30;74.90
48454;DHT22;34261;55.678;12.464;2023-06-04T12:49:37;27.80;72.90
48454;DHT22;34261;55.678;12.464;2023-06-04T12:52:03;28.00;74.60
48454;DHT22;34261;55.678;12.464;2023-06-04T12:54:29;28.30;73.60
48454;DHT22;34261;55.678;12.464;2023-06-04T12:56:55;28.50;71.10
48454;DHT22;34261;55.678;12.464;2023-06-04T12:59:24;28.90;70.60
48454;DHT22;34261;55.678;12.464;2023-06-04T13:01:50;28.90;71.10
48454;DHT22;34261;55.678;12.464;2023-06-04T13:04:16;28.70;71.80
48454;DHT22;34261;55.678;12.464;2023-06-04T13:06:41;28.80;71.70
48454;DHT22;34261;55.678;12.464;2023-06-04T13:09:07;29.00;71.20
48454;DHT22;34261;55.678;12.464;2023-06-04T13:11:38;29.00;71.00
48454;DHT22;34261;55.678;12.464;2023-06-04T13:14:03;28.50;71.10
48454;DHT22;34261;55.678;12.464;2023-06-04T13:16:29;28.10;71.10
48454;DHT22;34261;55.678;12.464;2023-06-04T13:18:55;28.30;73.80
48454;DHT22;34261;55.678;12.464;2023-06-04T13:21:20;27.90;71.70
48454;DHT22;34261;55.678;12.464;2023-06-04T13:23:46;28.40;72.10
48454;DHT22;34261;55.678;12.464;2023-06-04T13:26:11;28.80;72.20
48454;DHT22;34261;55.678;12.464;2023-06-04T13:28:37;28.50;71.10
48454;DHT22;34261;55.678;12.464;2023-06-04T13:31:02;27.80;70.80
48454;DHT22;34261;55.678;12.464;2023-06-04T13:33:28;27.20;71.50
48454;DHT22;34261;55.678;12.464;2023-06-04T13:35:53;27.80;70.90
48454;DHT22;34261;55.678;12.464;2023-06-04T13:38:19;28.20;71.00
48454;DHT22;34261;55.678;12.464;2023-06-04T13:40:45;28.60;71.60
48454;DHT22;34261;55.678;12.464;2023-06-04T13:43:10;28.70;70.20
48454;DHT22;34261;55.678;12.464;2023-06-04T13:45:35;28.30;69.80
48454;DHT22;34261;55.678;12.464;2023-06-04T13:48:01;27.90;73.10
48454;DHT22;34261;55.678;12.464;2023-06-04T13:50:31;27.10;70.70
48454;DHT22;34261;55.678;12.464;2023-06-04T13:52:56;26.40;71.70
48454;DHT22;34261;55.678;12.464;2023-06-04T13:55:22;26.60;71.50
48454;DHT22;34261;55.678;12.464;2023-06-04T13:57:47;26.80;74.00
48454;DHT22;34261;55.678;12.464;2023-06-04T14:00:13;27.80;73.20
48454;DHT22;34261;55.678;12.464;2023-06-04T14:02:39;27.80;71.70
48454;DHT22;34261;55.678;12.464;2023-06-04T14:05:04;27.50;71.00
48454;DHT22;34261;55.678;12.464;2023-06-04T14:07:30;27.70;70.40
48454;DHT22;34261;55.678;12.464;2023-06-04T14:09:56;28.20;70.10
48454;DHT22;34261;55.678;12.464;2023-06-04T14:12:22;28.60;69.20
48454;DHT22;34261;55.678;12.464;2023-06-04T14:14:47;29.00;71.50
48454;DHT22;34261;55.678;12.464;2023-06-04T14:17:13;29.20;69.50
48454;DHT22;34261;55.678;12.464;2023-06-04T14:19:39;29.20;70.10
48454;DHT22;34261;55.678;12.464;2023-06-04T14:22:05;28.80;68.10
48454;DHT22;34261;55.678;12.464;2023-06-04T14:24:30;29.00;67.30
48454;DHT22;34261;55.678;12.464;2023-06-04T14:26:56;28.80;67.00
48454;DHT22;34261;55.678;12.464;2023-06-04T14:29:21;28.50;67.30
48454;DHT22;34261;55.678;12.464;2023-06-04T14:31:47;28.70;67.60
48454;DHT22;34261;55.678;12.464;2023-06-04T14:34:12;28.90;67.80
48454;DHT22;34261;55.678;12.464;2023-06-04T14:36:38;29.30;65.50
48454;DHT22;34261;55.678;12.464;2023-06-04T14:39:03;29.30;67.30
48454;DHT22;34261;55.678;12.464;2023-06-04T14:41:29;28.80;67.10
48454;DHT22;34261;55.678;12.464;2023-06-04T14:43:54;28.60;66.60
48454;DHT22;34261;55.678;12.464;2023-06-04T14:46:20;28.80;66.40
48454;DHT22;34261;55.678;12.464;2023-06-04T14:48:45;28.70;67.60
48454;DHT22;34261;55.678;12.464;2023-06-04T14:51:10;28.70;69.00
48454;DHT22;34261;55.678;12.464;2023-06-04T14:53:36;28.50;67.60
48454;DHT22;34261;55.678;12.464;2023-06-04T14:56:04;28.40;67.90
48454;DHT22;34261;55.678;12.464;2023-06-04T14:58:30;28.20;68.30
48454;DHT22;34261;55.678;12.464;2023-06-04T15:00:55;27.90;69.20
48454;DHT22;34261;55.678;12.464;2023-06-04T15:03:23;28.00;70.60
48454;DHT22;34261;55.678;12.464;2023-06-04T15:05:49;28.10;67.90
48454;DHT22;34261;55.678;12.464;2023-06-04T15:08:14;28.10;68.40
48454;DHT22;34261;55.678;12.464;2023-06-04T15:10:40;27.90;69.50
48454;DHT22;34261;55.678;12.464;2023-06-04T15:13:06;27.60;68.10
48454;DHT22;34261;55.678;12.464;2023-06-04T15:15:31;27.70;69.90
48454;DHT22;34261;55.678;12.464;2023-06-04T15:17:57;27.80;69.00
48454;DHT22;34261;55.678;12.464;2023-06-04T15:20:22;27.90;71.10
48454;DHT22;34261;55.678;12.464;2023-06-04T15:22:50;27.60;69.30
48454;DHT22;34261;55.678;12.464;2023-06-04T15:25:15;27.00;69.60
48454;DHT22;34261;55.678;12.464;2023-06-04T15:27:41;26.80;70.10
48454;DHT22;34261;55.678;12.464;2023-06-04T15:30:07;26.80;70.00